Time;durP1;ratioP1;P1;durP2;ratioP2;P2;SDS_P1;SDS_P2;PMS_P1;PMS_P2;Temp;Humidity;BMP_temperature;BMP_pressure;BME280_temperature;BME280_humidity;BME280_pressure;Samples;Min_cycle;Max_cycle;Signal;HPM_P1;HPM_P2
2023/05/08 00:02:07;;;;;;;16.70;11.90;;;;;;;;;;5086673;27;20132;-78
2023/05/08 00:04:33;;;;;;;13.40;12.00;;;;;;;;;;5081957;27;20047;-78
2023/05/08 00:06:59;;;;;;;17.73;12.10;;;;;;;;;;5084186;27;20058;-77
2023/05/08 00:09:26;;;;;;;12.98;11.70;;;;;;;;;;5086256;27;21800;-78
2023/05/08 00:11:52;;;;;;;14.93;12.07;;;;;;;;;;5083281;27;20046;-78
2023/05/08 00:14:18;;;;;;;12.63;11.27;;;;;;;;;;5084942;27;20047;-78
2023/05/08 00:16:44;;;;;;;14.15;11.40;;;;;;;;;;5081744;27;20051;-78
2023/05/08 00:19:10;;;;;;;13.00;11.63;;;;;;;;;;5086511;27;20522;-77
2023/05/08 00:21:36;;;;;;;13.88;11.95;;;;;;;;;;5081864;27;20123;-77
2023/05/08 00:24:02;;;;;;;13.40;12.00;;;;;;;;;;5081664;27;20117;-78
2023/05/08 00:26:28;;;;;;;16.50;12.63;;;;;;;;;;5075969;27;20048;-78
2023/05/08 00:28:54;;;;;;;13.85;12.45;;;;;;;;;;5085769;28;20059;-78
2023/05/08 00:31:20;;;;;;;14.43;12.73;;;;;;;;;;5079274;27;20503;-77
2023/05/08 00:33:46;;;;;;;15.95;12.85;;;;;;;;;;5078430;27;20058;-77
2023/05/08 00:36:14;;;;;;;14.68;12.55;;;;;;;;;;5081701;28;20047;-78
2023/05/08 00:38:41;;;;;;;15.65;14.05;;;;;;;;;;5075671;27;20047;-77
2023/05/08 00:41:07;;;;;;;15.27;13.77;;;;;;;;;;5081611;27;22068;-78
2023/05/08 00:43:34;;;;;;;18.60;14.23;;;;;;;;;;5066431;27;20044;-78
2023/05/08 00:46:01;;;;;;;17.50;14.05;;;;;;;;;;5079637;27;20092;-78
2023/05/08 00:48:31;;;;;;;15.63;13.80;;;;;;;;;;5084122;27;20039;-78
2023/05/08 00:50:58;;;;;;;16.15;13.73;;;;;;;;;;5085911;27;20078;-78
2023/05/08 00:53:26;;;;;;;18.38;14.00;;;;;;;;;;5086407;27;20047;-78
2023/05/08 00:55:52;;;;;;;16.83;13.52;;;;;;;;;;5087597;27;20077;-77
2023/05/08 00:58:18;;;;;;;15.60;14.00;;;;;;;;;;5066646;27;20043;-78
2023/05/08 01:00:45;;;;;;;16.05;14.38;;;;;;;;;;5088323;27;20051;-77
2023/05/08 01:03:12;;;;;;;16.85;13.77;;;;;;;;;;5087192;27;20052;-77
2023/05/08 01:05:38;;;;;;;19.60;14.57;;;;;;;;;;5089932;27;20483;-77
2023/05/08 01:08:04;;;;;;;16.48;14.73;;;;;;;;;;5083319;27;20085;-77
2023/05/08 01:10:50;;;;;;;15.23;13.63;;;;;;;;;;5086701;27;20062;-77
2023/05/08 01:13:28;;;;;;;15.20;13.63;;;;;;;;;;5055967;27;20062;-77
2023/05/08 01:15:59;;;;;;;15.80;13.77;;;;;;;;;;5088156;27;20124;-77
2023/05/08 01:18:33;;;;;;;15.75;14.02;;;;;;;;;;5088849;27;20199;-77
2023/05/08 01:21:08;;;;;;;15.90;13.77;;;;;;;;;;5088952;27;20051;-77
2023/05/08 01:23:50;;;;;;;16.85;13.35;;;;;;;;;;5086277;27;20119;-78
2023/05/08 01:26:31;;;;;;;14.35;12.68;;;;;;;;;;5083146;27;20047;-78
2023/05/08 01:28:57;;;;;;;14.65;13.15;;;;;;;;;;5084294;27;20055;-77
2023/05/08 01:31:25;;;;;;;14.57;12.80;;;;;;;;;;5084943;27;20078;-78
2023/05/08 01:33:51;;;;;;;15.48;12.95;;;;;;;;;;5084442;27;20051;-77
2023/05/08 01:36:28;;;;;;;15.68;12.65;;;;;;;;;;5078865;27;20051;-77
2023/05/08 01:39:10;;;;;;;14.63;13.07;;;;;;;;;;5081649;27;20079;-77
2023/05/08 01:41:37;;;;;;;14.10;12.60;;;;;;;;;;5080582;27;20240;-77
2023/05/08 01:44:03;;;;;;;15.85;12.18;;;;;;;;;;5086062;27;20092;-78
2023/05/08 01:46:31;;;;;;;17.98;13.65;;;;;;;;;;5085952;27;20042;-77
2023/05/08 01:49:04;;;;;;;15.02;13.13;;;;;;;;;;5073542;27;20044;-77
2023/05/08 01:51:35;;;;;;;14.13;12.65;;;;;;;;;;5076710;27;20083;-78
2023/05/08 01:54:04;;;;;;;18.42;13.35;;;;;;;;;;5077978;27;20040;-77
2023/05/08 01:56:31;;;;;;;14.82;13.25;;;;;;;;;;5081095;27;20124;-78
2023/05/08 01:58:58;;;;;;;14.48;12.90;;;;;;;;;;5089004;27;20051;-78
2023/05/08 02:01:25;;;;;;;14.75;13.02;;;;;;;;;;5086750;27;20035;-77
2023/05/08 02:03:53;;;;;;;15.30;13.27;;;;;;;;;;5058906;27;20517;-78
2023/05/08 02:06:20;;;;;;;16.15;13.95;;;;;;;;;;5064407;27;21364;-78
2023/05/08 02:08:47;;;;;;;16.27;14.23;;;;;;;;;;5083201;27;20058;-78
2023/05/08 02:11:14;;;;;;;18.17;14.52;;;;;;;;;;5081519;27;21006;-78
2023/05/08 02:13:41;;;;;;;17.23;13.50;;;;;;;;;;5084255;27;20048;-78
2023/05/08 02:16:08;;;;;;;16.10;13.50;;;;;;;;;;5083065;27;20231;-78
2023/05/08 02:18:35;;;;;;;17.63;13.95;;;;;;;;;;5101095;27;20120;-78
2023/05/08 02:21:03;;;;;;;16.08;14.30;;;;;;;;;;5063769;27;20709;-78
2023/05/08 02:23:30;;;;;;;18.00;13.77;;;;;;;;;;5083335;27;20051;-77
2023/05/08 02:25:56;;;;;;;20.10;13.55;;;;;;;;;;5085378;27;20054;-77
2023/05/08 02:28:23;;;;;;;16.15;13.20;;;;;;;;;;5083672;27;20042;-77
2023/05/08 02:30:50;;;;;;;13.32;11.95;;;;;;;;;;5081466;27;20055;-78
2023/05/08 02:33:16;;;;;;;17.15;13.02;;;;;;;;;;5064728;27;20063;-78
2023/05/08 02:35:43;;;;;;;15.18;13.02;;;;;;;;;;5081334;27;20047;-78
2023/05/08 02:38:10;;;;;;;21.30;13.73;;;;;;;;;;5087024;27;20051;-77
2023/05/08 02:40:41;;;;;;;17.13;12.88;;;;;;;;;;5080531;27;20035;-77
2023/05/08 02:43:07;;;;;;;14.40;12.88;;;;;;;;;;5082984;27;22017;-78
2023/05/08 02:45:46;;;;;;;18.17;13.18;;;;;;;;;;5082427;27;20190;-77
2023/05/08 02:48:14;;;;;;;14.60;12.38;;;;;;;;;;5081642;27;20043;-77
2023/05/08 02:50:56;;;;;;;14.55;12.30;;;;;;;;;;5083024;27;20043;-78
2023/05/08 02:53:31;;;;;;;18.17;12.65;;;;;;;;;;5087321;27;20991;-78
2023/05/08 02:56:01;;;;;;;14.95;12.55;;;;;;;;;;5086425;27;20086;-78
2023/05/08 02:58:34;;;;;;;17.55;12.77;;;;;;;;;;5085397;27;20043;-78
2023/05/08 03:01:11;;;;;;;16.38;13.00;;;;;;;;;;5083395;27;20202;-77
2023/05/08 03:03:38;;;;;;;15.88;12.52;;;;;;;;;;5081288;27;20492;-77
2023/05/08 03:06:09;;;;;;;18.08;13.80;;;;;;;;;;5070291;27;20039;-77
2023/05/08 03:08:36;;;;;;;16.42;12.50;;;;;;;;;;5085545;27;20140;-77
2023/05/08 03:11:05;;;;;;;16.02;13.30;;;;;;;;;;5083874;27;20130;-76
2023/05/08 03:13:34;;;;;;;15.63;13.93;;;;;;;;;;5079463;27;20092;-77
2023/05/08 03:16:01;;;;;;;16.50;13.45;;;;;;;;;;5083924;27;20053;-77
2023/05/08 03:18:32;;;;;;;15.05;13.48;;;;;;;;;;5077799;27;20514;-77
2023/05/08 03:20:59;;;;;;;16.08;14.40;;;;;;;;;;5086675;27;20047;-77
2023/05/08 03:23:27;;;;;;;17.38;14.80;;;;;;;;;;5061486;27;20046;-77
2023/05/08 03:25:54;;;;;;;17.30;14.18;;;;;;;;;;5084762;27;20036;-78
2023/05/08 03:28:22;;;;;;;17.55;13.98;;;;;;;;;;5085769;27;20067;-77
2023/05/08 03:30:50;;;;;;;16.73;14.88;;;;;;;;;;5083308;27;20098;-78
2023/05/08 03:33:16;;;;;;;15.35;13.75;;;;;;;;;;5087502;27;20858;-78
2023/05/08 03:35:43;;;;;;;18.67;14.60;;;;;;;;;;5083103;27;20103;-78
2023/05/08 03:38:09;;;;;;;15.40;13.80;;;;;;;;;;5082096;27;20070;-77
2023/05/08 03:40:37;;;;;;;18.35;14.50;;;;;;;;;;5066899;27;20047;-77
2023/05/08 03:43:04;;;;;;;17.38;13.85;;;;;;;;;;5081750;27;20047;-78
2023/05/08 03:45:31;;;;;;;16.30;13.82;;;;;;;;;;5078940;27;22151;-77
2023/05/08 03:47:57;;;;;;;18.20;14.80;;;;;;;;;;5078300;27;20096;-77
2023/05/08 03:50:23;;;;;;;16.73;14.07;;;;;;;;;;5062161;27;20635;-77
2023/05/08 03:52:50;;;;;;;21.63;14.35;;;;;;;;;;5080007;27;20043;-77
2023/05/08 03:55:16;;;;;;;17.20;14.60;;;;;;;;;;5078103;27;20066;-77
2023/05/08 03:57:52;;;;;;;17.52;14.57;;;;;;;;;;5080298;27;20043;-77
2023/05/08 04:00:26;;;;;;;19.45;14.93;;;;;;;;;;5078858;27;20066;-77
2023/05/08 04:02:56;;;;;;;17.50;14.45;;;;;;;;;;5082805;27;20035;-77
2023/05/08 04:05:22;;;;;;;16.30;14.15;;;;;;;;;;5077956;27;20096;-77
2023/05/08 04:08:15;;;;;;;16.25;14.55;;;;;;;;;;5079300;27;20040;-77
2023/05/08 04:10:54;;;;;;;17.42;14.13;;;;;;;;;;5053199;28;20051;-78
2023/05/08 04:13:28;;;;;;;19.48;15.25;;;;;;;;;;5079471;27;20123;-78
2023/05/08 04:16:05;;;;;;;18.27;15.13;;;;;;;;;;5081909;28;20043;-78
2023/05/08 04:18:34;;;;;;;18.65;14.15;;;;;;;;;;5080042;28;20039;-77
2023/05/08 04:21:01;;;;;;;17.15;14.23;;;;;;;;;;5087303;27;20938;-77
2023/05/08 04:23:28;;;;;;;20.75;14.52;;;;;;;;;;5090732;27;20710;-78
2023/05/08 04:25:56;;;;;;;18.95;14.13;;;;;;;;;;5085332;27;20133;-77
2023/05/08 04:28:22;;;;;;;16.23;14.48;;;;;;;;;;5089633;27;20076;-78
2023/05/08 04:30:49;;;;;;;17.38;14.63;;;;;;;;;;5086021;27;20077;-78
2023/05/08 04:33:17;;;;;;;16.35;14.20;;;;;;;;;;5089554;27;20052;-78
2023/05/08 04:35:44;;;;;;;17.15;14.38;;;;;;;;;;5072757;27;20035;-77
2023/05/08 04:38:11;;;;;;;15.95;14.30;;;;;;;;;;5087942;27;20169;-78
2023/05/08 04:40:37;;;;;;;14.93;13.43;;;;;;;;;;5063816;27;20126;-78
2023/05/08 04:43:03;;;;;;;15.82;13.80;;;;;;;;;;5086599;27;20136;-78
2023/05/08 04:45:29;;;;;;;20.33;15.00;;;;;;;;;;5088146;27;21139;-78
2023/05/08 04:47:55;;;;;;;18.08;13.75;;;;;;;;;;5067186;27;20065;-79
2023/05/08 04:50:21;;;;;;;15.95;13.95;;;;;;;;;;5088649;27;20047;-79
2023/05/08 04:52:47;;;;;;;17.33;14.02;;;;;;;;;;5089721;27;20047;-79
2023/05/08 04:55:14;;;;;;;17.70;13.68;;;;;;;;;;5088960;27;20035;-79
2023/05/08 04:57:40;;;;;;;15.18;13.20;;;;;;;;;;5090305;27;20043;-79
2023/05/08 05:00:06;;;;;;;14.45;12.95;;;;;;;;;;5090249;27;20044;-79
2023/05/08 05:02:32;;;;;;;14.82;13.32;;;;;;;;;;5088397;27;20078;-79
2023/05/08 05:05:00;;;;;;;14.50;13.00;;;;;;;;;;5093435;27;20100;-78
2023/05/08 05:07:26;;;;;;;15.63;13.52;;;;;;;;;;5089159;27;20051;-78
2023/05/08 05:09:52;;;;;;;15.68;13.43;;;;;;;;;;5082377;27;20052;-79
2023/05/08 05:12:18;;;;;;;15.65;13.52;;;;;;;;;;5088490;27;20047;-78
2023/05/08 05:14:44;;;;;;;16.75;13.90;;;;;;;;;;5090389;27;20071;-78
2023/05/08 05:17:10;;;;;;;14.70;13.20;;;;;;;;;;5089965;27;20087;-79
2023/05/08 05:19:36;;;;;;;14.98;13.38;;;;;;;;;;5091631;27;20159;-79
2023/05/08 05:22:02;;;;;;;16.20;13.25;;;;;;;;;;5091510;27;20036;-78
2023/05/08 05:24:28;;;;;;;14.90;13.38;;;;;;;;;;5090498;27;20151;-79
2023/05/08 05:26:54;;;;;;;14.95;13.45;;;;;;;;;;5090265;27;20043;-78
2023/05/08 05:29:22;;;;;;;15.50;13.88;;;;;;;;;;5090468;27;20066;-77
2023/05/08 05:31:48;;;;;;;15.20;13.70;;;;;;;;;;5087537;27;20069;-80
2023/05/08 05:34:14;;;;;;;15.48;13.82;;;;;;;;;;5082900;27;20035;-80
2023/05/08 05:36:40;;;;;;;15.43;13.73;;;;;;;;;;5082343;27;20051;-80
2023/05/08 05:39:06;;;;;;;14.10;12.60;;;;;;;;;;5087674;27;20209;-80
2023/05/08 05:41:33;;;;;;;13.95;12.55;;;;;;;;;;5087778;27;20063;-81
2023/05/08 05:43:59;;;;;;;15.73;13.35;;;;;;;;;;5091172;27;20039;-79
2023/05/08 05:46:31;;;;;;;15.43;13.73;;;;;;;;;;5088928;27;20046;-79
2023/05/08 05:48:57;;;;;;;16.88;14.35;;;;;;;;;;5090810;27;22204;-79
2023/05/08 05:51:23;;;;;;;15.35;13.75;;;;;;;;;;5087887;27;20043;-81
2023/05/08 05:53:49;;;;;;;14.95;13.35;;;;;;;;;;5091577;27;20039;-80
2023/05/08 05:56:15;;;;;;;15.30;13.35;;;;;;;;;;5094358;27;20838;-80
2023/05/08 05:58:43;;;;;;;15.50;13.90;;;;;;;;;;5092504;27;20040;-80
2023/05/08 06:01:10;;;;;;;15.20;13.35;;;;;;;;;;5092258;27;20048;-81
2023/05/08 06:03:36;;;;;;;14.82;13.23;;;;;;;;;;5093284;27;20046;-81
2023/05/08 06:06:03;;;;;;;15.02;13.52;;;;;;;;;;5095077;27;20494;-81
2023/05/08 06:08:29;;;;;;;17.23;14.27;;;;;;;;;;5095749;27;20050;-80
2023/05/08 06:10:55;;;;;;;15.25;13.65;;;;;;;;;;5089737;27;20679;-80
2023/05/08 06:13:21;;;;;;;16.25;13.98;;;;;;;;;;5088558;27;20098;-80
2023/05/08 06:15:49;;;;;;;15.75;13.07;;;;;;;;;;5076314;27;20048;-80
2023/05/08 06:18:15;;;;;;;16.55;13.60;;;;;;;;;;5088016;27;20174;-81
2023/05/08 06:20:42;;;;;;;17.13;14.32;;;;;;;;;;5091960;27;20106;-81
2023/05/08 06:23:08;;;;;;;15.00;13.48;;;;;;;;;;5090904;27;20052;-79
2023/05/08 06:25:34;;;;;;;15.85;14.23;;;;;;;;;;5090685;27;20512;-80
2023/05/08 06:28:00;;;;;;;16.45;13.65;;;;;;;;;;5089218;27;20051;-81
2023/05/08 06:30:26;;;;;;;16.75;13.80;;;;;;;;;;5088674;27;20055;-80
2023/05/08 06:32:52;;;;;;;17.27;15.45;;;;;;;;;;5073218;27;20399;-81
2023/05/08 06:35:18;;;;;;;16.35;14.20;;;;;;;;;;5087449;27;20070;-76
2023/05/08 06:37:45;;;;;;;15.45;13.77;;;;;;;;;;5071604;27;20075;-75
2023/05/08 06:40:12;;;;;;;17.17;14.93;;;;;;;;;;5089621;27;20040;-75
2023/05/08 06:42:39;;;;;;;17.33;14.90;;;;;;;;;;5087178;27;20043;-75
2023/05/08 06:45:05;;;;;;;16.67;14.75;;;;;;;;;;5089783;27;20043;-75
2023/05/08 06:47:31;;;;;;;18.65;16.70;;;;;;;;;;5089244;27;20488;-75
2023/05/08 06:49:57;;;;;;;19.25;16.70;;;;;;;;;;5084978;27;20043;-74
2023/05/08 06:52:24;;;;;;;19.08;15.57;;;;;;;;;;5084222;27;20043;-74
2023/05/08 06:54:50;;;;;;;19.30;17.30;;;;;;;;;;5089250;27;20084;-74
2023/05/08 06:57:16;;;;;;;19.02;16.55;;;;;;;;;;5071926;27;20040;-74
2023/05/08 06:59:43;;;;;;;16.85;15.00;;;;;;;;;;5089888;27;20043;-74
2023/05/08 07:02:09;;;;;;;15.38;13.88;;;;;;;;;;5088793;27;20043;-74
2023/05/08 07:04:35;;;;;;;16.73;14.98;;;;;;;;;;5090888;27;20048;-74
2023/05/08 07:07:02;;;;;;;16.88;14.43;;;;;;;;;;5084565;27;20948;-74
2023/05/08 07:09:28;;;;;;;17.27;15.48;;;;;;;;;;5089262;27;20055;-75
2023/05/08 07:11:54;;;;;;;17.40;15.18;;;;;;;;;;5086981;27;20078;-75
2023/05/08 07:14:20;;;;;;;16.83;14.65;;;;;;;;;;5070212;27;20051;-75
2023/05/08 07:16:46;;;;;;;16.13;14.45;;;;;;;;;;5084788;27;20475;-75
2023/05/08 07:19:12;;;;;;;17.40;15.70;;;;;;;;;;5086262;27;20046;-75
2023/05/08 07:21:39;;;;;;;19.58;14.57;;;;;;;;;;5086171;27;20050;-74
2023/05/08 07:24:05;;;;;;;16.83;14.85;;;;;;;;;;5086403;27;20048;-75
2023/05/08 07:26:31;;;;;;;20.75;14.00;;;;;;;;;;5087536;27;20131;-74
2023/05/08 07:28:57;;;;;;;24.60;13.93;;;;;;;;;;5086368;27;20071;-75
2023/05/08 07:31:23;;;;;;;15.20;13.63;;;;;;;;;;5089090;27;20240;-74
2023/05/08 07:33:49;;;;;;;16.85;15.00;;;;;;;;;;5071247;27;20552;-75
2023/05/08 07:36:16;;;;;;;18.40;13.65;;;;;;;;;;5087745;27;20043;-75
2023/05/08 07:38:42;;;;;;;15.02;13.48;;;;;;;;;;5086654;27;20100;-75
2023/05/08 07:41:09;;;;;;;15.10;13.52;;;;;;;;;;5087730;27;22069;-75
2023/05/08 07:43:36;;;;;;;20.15;14.65;;;;;;;;;;5086333;27;20036;-75
2023/05/08 07:46:02;;;;;;;15.07;13.60;;;;;;;;;;5078088;27;20031;-75
2023/05/08 07:48:28;;;;;;;16.25;14.38;;;;;;;;;;5085857;27;20058;-75
2023/05/08 07:50:54;;;;;;;16.80;14.55;;;;;;;;;;5087759;27;20047;-74
2023/05/08 07:53:20;;;;;;;16.95;14.10;;;;;;;;;;5088341;27;20039;-74
2023/05/08 07:55:46;;;;;;;44.30;16.20;;;;;;;;;;5086856;27;20638;-75
2023/05/08 07:58:13;;;;;;;15.02;13.50;;;;;;;;;;5086541;27;20138;-75
2023/05/08 08:00:39;;;;;;;18.98;13.95;;;;;;;;;;5087755;27;20078;-75
2023/05/08 08:03:06;;;;;;;17.42;14.35;;;;;;;;;;5089369;27;20047;-75
2023/05/08 08:05:32;;;;;;;15.90;14.25;;;;;;;;;;5054978;27;20043;-75
2023/05/08 08:07:58;;;;;;;15.85;14.25;;;;;;;;;;5084848;27;20070;-74
2023/05/08 08:10:24;;;;;;;20.02;14.60;;;;;;;;;;5088901;27;20035;-74
2023/05/08 08:12:50;;;;;;;17.85;15.02;;;;;;;;;;5090565;27;20080;-74
2023/05/08 08:15:16;;;;;;;15.93;14.50;;;;;;;;;;5086042;27;20082;-74
2023/05/08 08:17:42;;;;;;;16.50;14.18;;;;;;;;;;5084525;27;20066;-74
2023/05/08 08:20:08;;;;;;;17.23;15.43;;;;;;;;;;5064703;28;21977;-74
2023/05/08 08:22:36;;;;;;;16.55;14.85;;;;;;;;;;5083433;27;20056;-78
2023/05/08 08:25:03;;;;;;;17.52;15.70;;;;;;;;;;5085220;27;20507;-79
2023/05/08 08:27:29;;;;;;;16.48;14.50;;;;;;;;;;5066159;28;20051;-80
2023/05/08 08:29:55;;;;;;;18.13;15.90;;;;;;;;;;5086928;27;20056;-80
2023/05/08 08:32:21;;;;;;;17.20;15.40;;;;;;;;;;5079328;28;20063;-80
2023/05/08 08:34:47;;;;;;;17.27;15.48;;;;;;;;;;5061909;28;20039;-80
2023/05/08 08:37:13;;;;;;;16.85;15.23;;;;;;;;;;5071726;28;20496;-80
2023/05/08 08:39:39;;;;;;;18.15;16.25;;;;;;;;;;5079219;27;20042;-81
2023/05/08 08:42:05;;;;;;;18.83;15.35;;;;;;;;;;5087007;27;20150;-81
2023/05/08 08:44:34;;;;;;;16.85;15.25;;;;;;;;;;5086908;27;20035;-81
2023/05/08 08:47:00;;;;;;;18.15;14.80;;;;;;;;;;5085227;28;20042;-80
2023/05/08 08:49:31;;;;;;;16.88;15.10;;;;;;;;;;5088661;27;20146;-80
2023/05/08 08:52:07;;;;;;;18.55;16.75;;;;;;;;;;5072489;28;20723;-80
2023/05/08 08:54:34;;;;;;;17.45;15.75;;;;;;;;;;5085085;27;20040;-81
2023/05/08 08:57:01;;;;;;;17.48;15.77;;;;;;;;;;5087852;28;20051;-80
2023/05/08 08:59:28;;;;;;;17.05;15.45;;;;;;;;;;5083113;27;20055;-80
2023/05/08 09:01:55;;;;;;;16.60;15.00;;;;;;;;;;5085809;28;20042;-78
2023/05/08 09:04:26;;;;;;;18.52;16.83;;;;;;;;;;5084914;27;20043;-79
2023/05/08 09:06:53;;;;;;;18.30;16.08;;;;;;;;;;5085082;27;20781;-79
2023/05/08 09:09:19;;;;;;;17.23;15.40;;;;;;;;;;5089853;27;20043;-80
2023/05/08 09:11:46;;;;;;;18.85;16.85;;;;;;;;;;5068751;27;20134;-80
2023/05/08 09:14:12;;;;;;;19.95;17.95;;;;;;;;;;5089859;27;20048;-80
2023/05/08 09:16:38;;;;;;;18.73;16.92;;;;;;;;;;5057535;27;20554;-80
2023/05/08 09:19:05;;;;;;;18.20;16.40;;;;;;;;;;5081111;27;20050;-80
2023/05/08 09:21:31;;;;;;;18.42;16.63;;;;;;;;;;5079756;27;20071;-80
2023/05/08 09:23:58;;;;;;;17.05;15.30;;;;;;;;;;5089391;27;20131;-79
2023/05/08 09:26:28;;;;;;;17.08;15.48;;;;;;;;;;5068402;27;20068;-79
2023/05/08 09:29:14;;;;;;;17.38;15.65;;;;;;;;;;5073520;27;21157;-79
2023/05/08 09:31:44;;;;;;;17.38;15.70;;;;;;;;;;5086872;27;22872;-79
2023/05/08 09:34:32;;;;;;;16.13;14.63;;;;;;;;;;5086622;27;20135;-78
2023/05/08 09:37:04;;;;;;;17.95;16.15;;;;;;;;;;5063293;28;20066;-79
2023/05/08 09:39:34;;;;;;;17.27;15.50;;;;;;;;;;5084214;27;20244;-79
2023/05/08 09:42:01;;;;;;;17.70;16.00;;;;;;;;;;5087723;27;20047;-80
2023/05/08 09:44:27;;;;;;;16.50;14.80;;;;;;;;;;5076984;27;20043;-82
2023/05/08 09:47:09;;;;;;;16.63;14.93;;;;;;;;;;5098985;27;20103;-79
2023/05/08 09:49:35;;;;;;;17.02;14.90;;;;;;;;;;5097792;27;20122;-82
2023/05/08 09:52:01;;;;;;;16.77;15.18;;;;;;;;;;5090969;27;20096;-76
2023/05/08 09:54:27;;;;;;;16.80;15.10;;;;;;;;;;5089277;27;20061;-76
2023/05/08 09:56:54;;;;;;;16.80;15.10;;;;;;;;;;5087615;27;20056;-76
2023/05/08 09:59:32;;;;;;;15.90;14.40;;;;;;;;;;5070883;27;20051;-76
2023/05/08 10:01:58;;;;;;;16.63;14.90;;;;;;;;;;5087563;27;20036;-76
2023/05/08 10:04:35;;;;;;;16.65;14.52;;;;;;;;;;5064247;27;20503;-76
2023/05/08 10:07:01;;;;;;;16.15;14.52;;;;;;;;;;5086979;27;20751;-74
2023/05/08 10:09:28;;;;;;;16.55;15.00;;;;;;;;;;5085669;27;20066;-75
2023/05/08 10:11:54;;;;;;;17.38;15.77;;;;;;;;;;5087560;27;20076;-74
2023/05/08 10:14:23;;;;;;;16.92;15.18;;;;;;;;;;5086983;27;20043;-74
2023/05/08 10:16:51;;;;;;;16.52;15.10;;;;;;;;;;5087062;27;21034;-74
2023/05/08 10:19:21;;;;;;;16.20;14.60;;;;;;;;;;5073251;27;20043;-75
2023/05/08 10:21:48;;;;;;;16.60;14.85;;;;;;;;;;5087013;27;20040;-75
2023/05/08 10:24:16;;;;;;;17.52;15.20;;;;;;;;;;5084162;27;20042;-75
2023/05/08 10:26:44;;;;;;;16.80;15.10;;;;;;;;;;5086579;27;20055;-75
2023/05/08 10:29:17;;;;;;;20.80;15.75;;;;;;;;;;5085294;27;20092;-74
2023/05/08 10:31:45;;;;;;;17.13;14.15;;;;;;;;;;5086798;27;20098;-75
2023/05/08 10:34:19;;;;;;;19.02;15.48;;;;;;;;;;5081997;27;20049;-75
2023/05/08 10:36:46;;;;;;;17.92;16.13;;;;;;;;;;5088198;27;20063;-75
2023/05/08 10:39:15;;;;;;;17.55;15.77;;;;;;;;;;5085990;27;20117;-75
2023/05/08 10:41:42;;;;;;;17.23;15.50;;;;;;;;;;5067904;27;20117;-75
2023/05/08 10:44:09;;;;;;;17.73;15.85;;;;;;;;;;5085183;27;20039;-74
2023/05/08 10:46:56;;;;;;;17.30;15.63;;;;;;;;;;5088598;27;20127;-75
2023/05/08 10:49:31;;;;;;;16.58;14.98;;;;;;;;;;5080544;27;20054;-75
2023/05/08 10:52:01;;;;;;;17.45;15.77;;;;;;;;;;5087518;27;20035;-75
2023/05/08 10:54:35;;;;;;;17.05;15.40;;;;;;;;;;5090868;27;20058;-77
2023/05/08 10:57:09;;;;;;;18.45;15.80;;;;;;;;;;5090800;27;20904;-78
2023/05/08 10:59:36;;;;;;;18.45;16.40;;;;;;;;;;5087858;27;20145;-77
2023/05/08 11:02:08;;;;;;;16.67;15.00;;;;;;;;;;5087015;27;20043;-78
2023/05/08 11:04:35;;;;;;;17.60;15.98;;;;;;;;;;5088317;27;20126;-78
2023/05/08 11:07:03;;;;;;;16.98;15.38;;;;;;;;;;5087976;27;20139;-78
2023/05/08 11:09:30;;;;;;;17.23;15.45;;;;;;;;;;5091388;27;20058;-80
2023/05/08 11:12:07;;;;;;;17.05;15.55;;;;;;;;;;5089374;27;20086;-82
2023/05/08 11:14:35;;;;;;;17.88;16.08;;;;;;;;;;5088515;27;20178;-81
2023/05/08 11:17:01;;;;;;;18.65;16.42;;;;;;;;;;5072010;27;20051;-81
2023/05/08 11:19:27;;;;;;;18.25;15.48;;;;;;;;;;5087232;27;20047;-81
2023/05/08 11:22:17;;;;;;;18.13;16.02;;;;;;;;;;5087983;27;20048;-82
2023/05/08 11:24:47;;;;;;;16.63;15.07;;;;;;;;;;5065067;27;20048;-82
2023/05/08 11:27:14;;;;;;;17.45;15.38;;;;;;;;;;5085574;27;20055;-81
2023/05/08 11:29:40;;;;;;;17.13;15.52;;;;;;;;;;5070481;28;20476;-81
2023/05/08 11:32:06;;;;;;;17.00;15.48;;;;;;;;;;5091712;27;20059;-80
2023/05/08 11:34:41;;;;;;;20.25;15.82;;;;;;;;;;5091731;27;20173;-80
2023/05/08 11:37:21;;;;;;;19.05;15.95;;;;;;;;;;5083935;27;20039;-81
2023/05/08 11:39:48;;;;;;;17.15;15.40;;;;;;;;;;5087758;27;20123;-81
2023/05/08 11:42:26;;;;;;;17.55;15.90;;;;;;;;;;5085605;27;20543;-76
2023/05/08 11:45:06;;;;;;;17.42;15.73;;;;;;;;;;5085393;27;20071;-77
2023/05/08 11:47:42;;;;;;;17.88;15.57;;;;;;;;;;5086356;27;20067;-77
2023/05/08 11:50:10;;;;;;;16.67;15.07;;;;;;;;;;5083076;27;20051;-77
2023/05/08 11:52:36;;;;;;;16.67;15.20;;;;;;;;;;5068639;27;20741;-76
2023/05/08 11:55:07;;;;;;;18.00;16.30;;;;;;;;;;5087996;27;20047;-76
2023/05/08 11:57:33;;;;;;;18.50;16.80;;;;;;;;;;5085609;27;20097;-77
2023/05/08 12:00:09;;;;;;;18.17;16.30;;;;;;;;;;5081056;27;20044;-77
2023/05/08 12:02:39;;;;;;;18.42;16.63;;;;;;;;;;5086936;27;20047;-77
2023/05/08 12:05:09;;;;;;;17.23;15.63;;;;;;;;;;5061906;28;20624;-77
2023/05/08 12:07:45;;;;;;;19.73;16.23;;;;;;;;;;5083725;28;20040;-77
2023/05/08 12:10:11;;;;;;;18.23;16.38;;;;;;;;;;5069874;28;20047;-77
2023/05/08 12:12:41;;;;;;;18.10;16.20;;;;;;;;;;5068280;28;20104;-77
2023/05/08 12:15:08;;;;;;;19.40;17.52;;;;;;;;;;5090349;27;20044;-77
2023/05/08 12:17:34;;;;;;;18.15;16.35;;;;;;;;;;5077570;27;20088;-76
2023/05/08 12:20:11;;;;;;;18.60;16.80;;;;;;;;;;5082821;27;20057;-78
2023/05/08 12:22:41;;;;;;;22.25;18.25;;;;;;;;;;5086636;27;20048;-79
2023/05/08 12:25:08;;;;;;;18.40;16.70;;;;;;;;;;5083484;27;20395;-77
2023/05/08 12:27:37;;;;;;;18.15;16.48;;;;;;;;;;5085199;28;20054;-77
2023/05/08 12:30:08;;;;;;;17.60;15.75;;;;;;;;;;5084160;28;20065;-77
2023/05/08 12:32:35;;;;;;;18.65;16.85;;;;;;;;;;5083389;27;20314;-78
2023/05/08 12:35:02;;;;;;;18.90;17.10;;;;;;;;;;5084200;27;20083;-73
2023/05/08 12:37:28;;;;;;;18.02;16.40;;;;;;;;;;5082035;27;20105;-76
2023/05/08 12:39:54;;;;;;;18.02;16.23;;;;;;;;;;5083795;28;20039;-78
2023/05/08 12:42:20;;;;;;;19.10;17.33;;;;;;;;;;5087986;27;20131;-76
2023/05/08 12:44:50;;;;;;;19.20;16.85;;;;;;;;;;5085655;27;20050;-76
2023/05/08 12:47:19;;;;;;;19.83;17.85;;;;;;;;;;5091040;27;20117;-76
2023/05/08 12:49:48;;;;;;;19.98;17.70;;;;;;;;;;5089209;27;20044;-75
2023/05/08 12:52:14;;;;;;;19.27;17.50;;;;;;;;;;5087713;27;21289;-74
2023/05/08 12:54:45;;;;;;;20.15;18.42;;;;;;;;;;5087591;27;20043;-76
2023/05/08 12:57:12;;;;;;;18.50;16.77;;;;;;;;;;5084998;27;21096;-76
2023/05/08 12:59:38;;;;;;;19.80;18.10;;;;;;;;;;5085140;27;20051;-75
2023/05/08 13:02:11;;;;;;;19.25;17.45;;;;;;;;;;5106369;27;20031;-83
2023/05/08 13:04:37;;;;;;;20.30;18.40;;;;;;;;;;5105757;27;20023;-86
2023/05/08 13:07:04;;;;;;;21.33;19.13;;;;;;;;;;5113630;27;20076;-86
2023/05/08 13:09:34;;;;;;;20.33;18.10;;;;;;;;;;5108141;27;20054;-85
2023/05/08 13:12:00;;;;;;;21.27;19.17;;;;;;;;;;5088527;27;20055;-86
2023/05/08 13:14:26;;;;;;;20.80;18.75;;;;;;;;;;5091526;27;20100;-85
2023/05/08 13:16:52;;;;;;;20.60;18.70;;;;;;;;;;5107640;27;20877;-84
2023/05/08 13:19:18;;;;;;;20.55;18.58;;;;;;;;;;5087495;27;20047;-87
2023/05/08 13:21:46;;;;;;;21.15;19.25;;;;;;;;;;5095111;27;20046;-73
2023/05/08 13:24:15;;;;;;;20.90;18.98;;;;;;;;;;5087793;27;20054;-76
2023/05/08 13:26:42;;;;;;;20.95;18.98;;;;;;;;;;5089137;27;20127;-73
2023/05/08 13:29:08;;;;;;;20.98;18.98;;;;;;;;;;5086518;27;20082;-72
2023/05/08 13:31:34;;;;;;;19.65;17.83;;;;;;;;;;5085048;27;20051;-75
2023/05/08 13:34:00;;;;;;;20.85;18.83;;;;;;;;;;5082749;27;20051;-75
2023/05/08 13:36:27;;;;;;;20.02;18.15;;;;;;;;;;5085079;27;20042;-75
2023/05/08 13:38:53;;;;;;;19.45;17.55;;;;;;;;;;5083836;27;20086;-75
2023/05/08 13:41:20;;;;;;;19.55;17.70;;;;;;;;;;5083520;27;20484;-75
2023/05/08 13:43:47;;;;;;;20.17;18.27;;;;;;;;;;5083908;27;20047;-76
2023/05/08 13:46:13;;;;;;;21.55;19.38;;;;;;;;;;5080276;27;20044;-75
2023/05/08 13:48:39;;;;;;;20.52;18.08;;;;;;;;;;5064854;27;20047;-76
2023/05/08 13:51:05;;;;;;;21.65;19.65;;;;;;;;;;5082240;27;20059;-75
2023/05/08 13:53:34;;;;;;;20.52;18.50;;;;;;;;;;5070590;27;20040;-83
2023/05/08 13:56:12;;;;;;;22.35;20.25;;;;;;;;;;5080515;27;20138;-83
2023/05/08 13:58:48;;;;;;;20.42;18.40;;;;;;;;;;5088185;27;21050;-83
2023/05/08 14:01:45;;;;;;;21.10;19.15;;;;;;;;;;5071380;27;20053;-84
2023/05/08 14:04:21;;;;;;;21.23;19.27;;;;;;;;;;5073743;27;20053;-83
2023/05/08 14:07:39;;;;;;;19.63;17.73;;;;;;;;;;4990418;28;20662;-83
2023/05/08 14:24:25;;;;;;;20.67;18.88;;;;;;;;;;4913172;29;20039;-83
2023/05/08 14:34:28;;;;;;;;;;;;;;;;;;;;;
2023/05/08 14:37:41;;;;;;;20.73;18.67;;;;;;;;;;4866277;29;20107;-83
2023/05/08 14:40:42;;;;;;;20.52;18.63;;;;;;;;;;4854603;29;20063;-83
2023/05/08 14:47:09;;;;;;;21.48;19.65;;;;;;;;;;4905927;29;20045;-82
2023/05/08 14:50:01;;;;;;;21.27;19.27;;;;;;;;;;4894673;29;20051;-82
2023/05/08 14:53:02;;;;;;;21.05;19.08;;;;;;;;;;4920920;28;20138;-82
2023/05/08 14:59:21;;;;;;;21.42;19.40;;;;;;;;;;4842426;29;20049;-82